CheckWX is a tool to help pilots better visualize weather data.  It is not intended as a substitute for an official pre-flight weather briefing.

01:21:31 UTC

KCVN METAR
Clovis Municipal Airport
Clovis, New Mexico, USA
Current

26 mins ago

KCVN 150056Z AUTO 22008KT 10SM CLR 17/06 A2995 RMK AO2 SLP124 T01720056
Observed
Oct-15 @ 00:56 UTC
Wind
  • 220° at 8 KTS
Visibility
10 SM
Flight Rules
VFR
Cloud Levels
  • Clear skies
Temperature
17°C / 63°F
Dewpoint
C / 43°F
Humidity
49%
Altimeter
29.95" Hg
Pressure
1014.22 hPa
Previous

1 hour ago

KCVN 142356Z AUTO 21007KT 10SM CLR 22/05 A2994 RMK AO2 SLP113 T02220050 10272 20222 55002
Observed
Oct-14 @ 23:56 UTC
Wind
  • 210° at 7 KTS
Visibility
10 SM
Flight Rules
VFR
Cloud Levels
  • Clear skies
Temperature
22°C / 72°F
Dewpoint
C / 41°F
Humidity
33%
Altimeter
29.94" Hg
Pressure
1013.92 hPa
Previous

2 hours ago

KCVN 142256Z AUTO 21012G16KT 10SM CLR 26/03 A2993 RMK AO2 SLP107 T02610028
Observed
Oct-14 @ 22:56 UTC
Wind
  • 210° at 12 KTS
  • Gusting to 16 KTS
Visibility
10 SM
Flight Rules
VFR
Cloud Levels
  • Clear skies
Temperature
26°C / 79°F
Dewpoint
C / 37°F
Humidity
23%
Altimeter
29.93" Hg
Pressure
1013.52 hPa